Etusivu
METAR-TAF:

METAR-TAF

Lentoasemat :

Waupaca Municipal Airport

Waupaca, Wisconsin, Yhdysvallat

Leveyspiiri: 44-20-01N, Pituuspiiri: 089-00-55W, korkeus merenpinnasta: 252 m

Tämänhetkinen sää

Tämä raportti tehtiin 42 minuuttia sitten, kello 13.55 UTC
Tuuli 7 kn lännestä/lounaasta
Lämpötila 16°C
Kosteus 82%
Ilmanpaine 1005 hPa
Näkyvyys: 16.1 km
Hajanaisia pilviä 12000 ft:n korkeudessa

METAR: KPCZ 271355Z AUTO 24007KT 10SM SCT120 16/13 A2969 RMK AO2 T01590133

Aika: 09:37 (14:37 UTC)


TAF: puuttuu

Säähavainnot ja -ennusteet yli 4000 lentoasemalta (METAR- ja TAF-raportit).

Käytössä olevat sääasemat on merkitty karttaan keltaisilla ja punaisilla pisteillä.

Aseta hiiri pisteen päälle nähdäksesi sääaseman nimen.

Klikkaa sitten nähdäksesi säähavainnot ja -ennusteet.

Kartan vaihtaminen: klikkaa mustalla rastilla varustettuja vihreitä pisteitä, niin voit zoomata sisään; viivalla varustettua vihreää pistettä, niin voit zoomata ulos tai vihreitä nuolia, niin pääset viereisille kartoille.


METAR-TAF: